createdAt,value
2023-05-31T00:57:48.069Z,16.71
2023-05-31T01:00:18.279Z,16.80
2023-05-31T01:03:28.202Z,16.98
2023-05-31T01:13:42.105Z,17.09
2023-05-31T01:16:34.169Z,17.21
2023-05-31T01:22:51.677Z,17.19
2023-05-31T01:32:14.953Z,17.29
2023-05-31T01:34:49.585Z,17.00
2023-05-31T01:40:14.354Z,17.20
2023-05-31T01:43:12.411Z,17.16
2023-05-31T01:46:52.250Z,17.22
2023-05-31T01:52:19.807Z,17.27
2023-05-31T01:55:06.605Z,16.86
2023-05-31T01:57:46.057Z,17.26
2023-05-31T02:00:19.100Z,17.44
2023-05-31T02:02:56.647Z,16.98
2023-05-31T02:05:49.497Z,17.23
2023-05-31T02:08:21.757Z,17.05
2023-05-31T02:10:51.810Z,16.95
2023-05-31T02:13:21.490Z,17.03
2023-05-31T02:15:50.404Z,17.15
2023-05-31T02:18:18.931Z,17.14
2023-05-31T02:20:50.713Z,17.10
2023-05-31T02:23:21.979Z,17.04
2023-05-31T02:25:52.687Z,17.20
2023-05-31T02:28:27.247Z,17.23
2023-05-31T02:30:57.092Z,17.03
2023-05-31T02:33:32.192Z,17.02
2023-05-31T02:36:03.947Z,17.28
2023-05-31T02:38:33.664Z,16.97
2023-05-31T02:41:04.558Z,17.20
2023-05-31T02:43:32.624Z,17.11
2023-05-31T02:46:03.192Z,17.09
2023-05-31T02:48:42.313Z,17.27
2023-05-31T02:51:10.613Z,17.32
2023-05-31T02:53:40.207Z,17.50
2023-05-31T02:56:10.445Z,17.40
2023-05-31T02:58:59.366Z,17.27
2023-05-31T03:01:27.739Z,17.27
2023-05-31T03:04:00.564Z,17.42
2023-05-31T03:06:29.763Z,17.19
2023-05-31T03:09:07.527Z,17.18
2023-05-31T03:12:02.439Z,17.42
2023-05-31T03:14:31.373Z,17.14
2023-05-31T03:16:59.999Z,17.30
2023-05-31T03:19:34.086Z,17.19
2023-05-31T03:22:24.437Z,17.19
2023-05-31T03:25:02.688Z,17.44
2023-05-31T03:27:35.481Z,17.42
2023-05-31T03:30:04.476Z,17.48
2023-05-31T03:32:37.968Z,17.60
2023-05-31T03:35:11.098Z,17.36
2023-05-31T03:40:56.915Z,17.43
2023-05-31T03:43:40.429Z,17.34
2023-05-31T03:46:21.178Z,17.13
2023-05-31T03:48:49.779Z,17.37
2023-05-31T03:51:22.237Z,17.19
2023-05-31T03:54:13.138Z,17.31
2023-05-31T03:56:56.065Z,17.32
2023-05-31T03:59:28.220Z,17.50
2023-05-31T04:01:57.685Z,17.31
2023-05-31T04:04:28.725Z,17.34
2023-05-31T04:06:56.867Z,17.25
2023-05-31T04:09:27.221Z,17.36
2023-05-31T04:12:03.360Z,17.65
2023-05-31T04:14:33.109Z,17.34
2023-05-31T04:17:04.735Z,17.19
2023-05-31T04:19:36.239Z,17.32
2023-05-31T04:22:05.859Z,17.41
2023-05-31T04:24:34.070Z,17.43
2023-05-31T04:27:04.357Z,17.38
2023-05-31T04:29:35.339Z,17.53
2023-05-31T04:32:25.872Z,17.58
2023-05-31T04:35:22.283Z,17.86
2023-05-31T04:37:54.005Z,17.79
2023-05-31T04:40:23.456Z,17.63
2023-05-31T04:42:54.845Z,18.03
2023-05-31T04:45:34.744Z,17.90
2023-05-31T04:48:08.241Z,18.53
2023-05-31T04:50:41.726Z,18.47
2023-05-31T04:53:10.501Z,18.52
2023-05-31T04:55:44.527Z,18.63
2023-05-31T04:58:20.741Z,18.71
2023-05-31T05:00:50.671Z,19.02
2023-05-31T05:03:25.531Z,18.83
2023-05-31T05:05:55.200Z,19.00
2023-05-31T05:08:24.471Z,18.84
2023-05-31T05:10:52.545Z,18.58
2023-05-31T05:16:07.437Z,19.21
2023-05-31T05:18:41.960Z,19.44
2023-05-31T05:21:10.057Z,19.63
2023-05-31T05:23:38.704Z,19.39
2023-05-31T05:26:06.737Z,19.39
2023-05-31T05:28:38.039Z,19.30
2023-05-31T05:31:09.280Z,19.35
2023-05-31T05:33:38.051Z,19.40
2023-05-31T05:36:06.978Z,19.64
2023-05-31T05:38:35.887Z,19.70
2023-05-31T05:41:04.076Z,19.84
2023-05-31T05:43:32.646Z,19.69
2023-05-31T05:46:02.030Z,19.62
2023-05-31T05:48:30.120Z,20.04
2023-05-31T05:50:58.552Z,19.95
2023-05-31T05:53:28.558Z,19.99
2023-05-31T05:55:56.688Z,20.22
2023-05-31T05:58:25.707Z,20.43
2023-05-31T06:00:58.215Z,20.65
2023-05-31T06:03:27.904Z,21.06
2023-05-31T06:06:03.216Z,21.14
2023-05-31T06:08:31.469Z,20.85
2023-05-31T06:10:59.456Z,21.26
2023-05-31T06:13:27.444Z,21.60
2023-05-31T06:16:08.067Z,21.87
2023-05-31T06:18:36.561Z,22.13
2023-05-31T06:21:15.679Z,21.84
2023-05-31T06:23:44.680Z,21.78
2023-05-31T06:26:12.813Z,21.71
2023-05-31T06:28:45.264Z,21.57
2023-05-31T06:31:21.304Z,21.49
2023-05-31T06:33:55.433Z,21.83
2023-05-31T06:39:40.021Z,22.20
2023-05-31T06:42:17.076Z,22.24
2023-05-31T06:44:57.056Z,22.78
2023-05-31T06:47:44.390Z,23.03
2023-05-31T06:50:20.781Z,23.78
2023-05-31T06:52:59.566Z,23.59
2023-05-31T06:55:28.038Z,22.97
2023-05-31T06:58:01.955Z,23.12
2023-05-31T07:03:28.364Z,25.58
2023-05-31T07:05:56.598Z,24.50
2023-05-31T07:11:24.257Z,25.13
2023-05-31T07:17:14.792Z,26.13
2023-05-31T07:20:54.077Z,26.01
2023-05-31T07:23:44.294Z,26.48
2023-05-31T07:29:19.652Z,27.32
2023-05-31T07:31:50.214Z,27.48
2023-05-31T07:34:29.306Z,27.80
2023-05-31T07:37:34.645Z,27.43
2023-05-31T07:40:10.466Z,27.60
2023-05-31T07:45:50.524Z,28.13
2023-05-31T07:51:36.661Z,28.34
2023-05-31T07:54:11.838Z,28.82
2023-05-31T07:56:42.751Z,27.64
2023-05-31T08:03:23.611Z,27.95
2023-05-31T08:11:59.265Z,27.86
2023-05-31T08:21:41.811Z,27.53
2023-05-31T08:24:21.450Z,28.70
2023-05-31T08:27:40.295Z,27.56
2023-05-31T08:34:00.553Z,27.90
2023-05-31T08:44:19.338Z,29.46
2023-05-31T08:54:04.229Z,30.05
2023-05-31T08:56:44.150Z,29.44
2023-05-31T08:59:49.478Z,29.46
2023-05-31T09:05:57.928Z,29.67
2023-05-31T09:08:41.144Z,29.81
2023-05-31T09:12:03.560Z,29.11
2023-05-31T09:15:06.509Z,28.73
2023-05-31T09:17:36.522Z,30.12
2023-05-31T09:23:35.162Z,28.47
2023-05-31T09:26:09.560Z,27.96
2023-05-31T09:32:16.623Z,29.99
2023-05-31T09:35:16.178Z,30.09
2023-05-31T09:48:25.444Z,30.79
2023-05-31T09:51:03.703Z,30.80
2023-05-31T09:53:51.827Z,30.75
2023-05-31T09:56:28.745Z,30.57
2023-05-31T09:58:57.905Z,30.91
2023-05-31T10:01:32.801Z,30.73
2023-05-31T10:04:07.683Z,30.56
2023-05-31T10:06:37.833Z,31.04
2023-05-31T10:09:13.885Z,30.72
2023-05-31T10:12:02.229Z,31.15
2023-05-31T10:14:41.277Z,31.48
2023-05-31T10:17:21.726Z,30.13
2023-05-31T10:23:29.486Z,30.22
2023-05-31T10:26:13.537Z,31.16
2023-05-31T10:29:17.016Z,31.92
2023-05-31T10:39:35.736Z,31.97
2023-05-31T10:42:43.501Z,30.21
2023-05-31T10:45:15.045Z,30.71
2023-05-31T10:47:55.277Z,31.79
2023-05-31T10:50:29.845Z,32.64
2023-05-31T10:53:17.834Z,31.11
2023-05-31T10:55:50.849Z,31.01
2023-05-31T10:58:37.221Z,32.26
2023-05-31T11:01:16.167Z,31.61
2023-05-31T11:03:54.105Z,31.51
2023-05-31T11:06:32.064Z,31.69
2023-05-31T11:09:36.546Z,31.11
2023-05-31T11:12:13.529Z,31.34
2023-05-31T11:15:11.464Z,30.20
2023-05-31T11:17:55.285Z,29.64
2023-05-31T11:20:27.037Z,29.88
2023-05-31T11:23:14.928Z,27.23
2023-05-31T11:25:43.055Z,28.04
2023-05-31T11:28:15.394Z,29.32
2023-05-31T11:31:12.588Z,29.03
2023-05-31T11:33:58.391Z,30.18
2023-05-31T11:36:38.161Z,29.82
2023-05-31T11:39:07.267Z,28.72
2023-05-31T11:44:53.257Z,28.71
2023-05-31T11:47:34.259Z,27.63
2023-05-31T11:50:08.664Z,27.17
2023-05-31T12:18:55.406Z,28.39
2023-05-31T12:24:52.331Z,27.08
2023-05-31T12:27:46.131Z,26.79
2023-05-31T12:30:23.302Z,26.86
2023-05-31T12:32:59.018Z,27.32
2023-05-31T12:35:28.046Z,27.96
2023-05-31T12:37:56.423Z,27.55
2023-05-31T12:40:24.575Z,27.04
2023-05-31T12:43:01.053Z,26.61
2023-05-31T12:45:29.582Z,27.35
2023-05-31T12:47:58.358Z,27.32
2023-05-31T12:50:29.646Z,27.66
2023-05-31T12:52:58.299Z,27.20
2023-05-31T12:55:27.892Z,27.56
2023-05-31T12:57:55.659Z,27.68
2023-05-31T13:00:23.974Z,28.08
2023-05-31T13:02:52.968Z,27.73
2023-05-31T13:05:21.027Z,28.44
2023-05-31T13:07:49.177Z,28.35
2023-05-31T13:10:17.055Z,29.06
2023-05-31T13:12:45.023Z,28.91
2023-05-31T13:18:19.306Z,28.42
2023-05-31T13:20:53.544Z,29.12
2023-05-31T13:23:22.749Z,28.95
2023-05-31T13:29:32.589Z,28.36
2023-05-31T13:32:04.076Z,27.91
2023-05-31T13:34:32.863Z,29.38
2023-05-31T13:37:05.083Z,30.17
2023-05-31T13:39:33.886Z,29.69
2023-05-31T13:42:02.945Z,30.03
2023-05-31T13:44:30.690Z,29.43
2023-05-31T13:46:58.572Z,28.57
2023-05-31T13:49:26.765Z,29.39
2023-05-31T13:51:54.555Z,29.09
2023-05-31T13:54:22.289Z,28.82
2023-05-31T13:56:50.344Z,27.75
2023-05-31T13:59:19.232Z,28.16
2023-05-31T14:01:47.719Z,28.01
2023-05-31T14:04:24.402Z,27.58
2023-05-31T14:06:54.623Z,27.05
2023-05-31T14:10:26.032Z,27.58
2023-05-31T14:13:00.779Z,28.79
2023-05-31T14:15:34.855Z,28.13
2023-05-31T14:18:04.890Z,28.11
2023-05-31T14:20:35.088Z,27.59
2023-05-31T14:26:24.587Z,27.53
2023-05-31T14:28:52.333Z,27.28
2023-05-31T14:31:21.070Z,27.34
2023-05-31T14:33:49.430Z,27.69
2023-05-31T14:36:17.753Z,27.41
2023-05-31T14:38:46.007Z,27.20
2023-05-31T14:41:14.206Z,27.51
2023-05-31T14:43:42.327Z,27.47
2023-05-31T14:46:10.979Z,27.09
2023-05-31T14:48:42.486Z,27.20
2023-05-31T14:51:10.607Z,27.37
2023-05-31T14:53:38.516Z,27.74
2023-05-31T14:56:17.558Z,27.42
2023-05-31T14:58:53.670Z,27.05
2023-05-31T15:01:24.042Z,27.08
2023-05-31T15:03:56.458Z,27.24
2023-05-31T15:06:28.616Z,27.37
2023-05-31T15:08:56.416Z,27.26
2023-05-31T15:11:24.166Z,27.50
2023-05-31T15:13:52.577Z,27.25
2023-05-31T15:16:22.828Z,27.32
2023-05-31T15:18:52.089Z,27.13
2023-05-31T15:24:14.891Z,27.41
2023-05-31T15:27:10.765Z,27.21
2023-05-31T15:29:40.137Z,26.78
2023-05-31T15:35:16.233Z,27.10
2023-05-31T15:37:47.985Z,26.97
2023-05-31T15:40:24.574Z,26.97
2023-05-31T15:42:54.519Z,26.84
2023-05-31T15:45:22.368Z,26.39
2023-05-31T15:47:50.138Z,26.47
2023-05-31T15:50:21.710Z,26.74
2023-05-31T15:52:49.813Z,26.58
2023-05-31T15:55:17.686Z,26.44
2023-05-31T15:57:46.157Z,26.15
2023-05-31T16:00:14.757Z,26.17
2023-05-31T16:02:42.966Z,26.06
2023-05-31T16:05:13.219Z,26.45
2023-05-31T16:07:41.371Z,26.34
2023-05-31T16:10:09.964Z,26.16
2023-05-31T16:12:38.008Z,26.02
2023-05-31T16:15:06.211Z,25.53
2023-05-31T16:17:34.531Z,25.54
2023-05-31T16:20:02.625Z,25.10
2023-05-31T16:22:30.590Z,25.09
2023-05-31T16:24:58.954Z,24.74
2023-05-31T16:27:26.739Z,24.51
2023-05-31T16:29:54.576Z,24.24
2023-05-31T16:32:23.014Z,23.88
2023-05-31T16:34:50.909Z,23.80
2023-05-31T16:37:20.593Z,23.92
2023-05-31T16:39:48.726Z,23.93
2023-05-31T16:42:16.587Z,24.06
2023-05-31T16:44:46.446Z,24.03
2023-05-31T16:47:14.639Z,24.13
2023-05-31T16:49:42.378Z,24.30
2023-05-31T16:52:12.079Z,24.42
2023-05-31T16:54:40.324Z,24.47
2023-05-31T16:57:08.086Z,24.49
2023-05-31T16:59:37.170Z,24.56
2023-05-31T17:02:05.512Z,24.57
2023-05-31T17:04:33.366Z,24.47
2023-05-31T17:07:01.574Z,24.41
2023-05-31T17:09:39.429Z,24.32
2023-05-31T17:12:08.092Z,24.03
2023-05-31T17:14:38.523Z,23.72
2023-05-31T17:17:06.532Z,23.52
2023-05-31T17:19:34.344Z,23.50
2023-05-31T17:22:02.751Z,23.24
2023-05-31T17:24:30.633Z,23.12
2023-05-31T17:27:03.648Z,22.79
2023-05-31T17:29:31.928Z,22.72
2023-05-31T17:31:59.659Z,22.44
2023-05-31T17:34:27.568Z,22.13
2023-05-31T17:36:55.782Z,22.29
2023-05-31T17:39:23.954Z,22.15
2023-05-31T17:41:51.735Z,22.03
2023-05-31T17:44:20.633Z,21.96
2023-05-31T17:46:48.382Z,21.65
2023-05-31T17:49:16.326Z,21.33
2023-05-31T17:51:44.517Z,22.36
2023-05-31T17:54:12.319Z,21.10
2023-05-31T17:56:41.809Z,21.00
2023-05-31T17:59:10.200Z,20.88
2023-05-31T18:01:41.408Z,20.69
2023-05-31T18:04:09.776Z,20.51
2023-05-31T18:06:37.745Z,20.05
2023-05-31T18:09:06.072Z,20.15
2023-05-31T18:11:34.307Z,19.88
2023-05-31T18:14:02.969Z,19.63
2023-05-31T18:16:31.975Z,20.20
2023-05-31T18:19:00.203Z,19.42
2023-05-31T18:21:28.039Z,19.22
2023-05-31T18:23:55.913Z,19.92
2023-05-31T18:26:24.264Z,19.57
2023-05-31T18:28:52.088Z,18.92
2023-05-31T18:31:19.951Z,18.90
2023-05-31T18:33:48.013Z,19.57
2023-05-31T18:36:15.943Z,19.42
2023-05-31T18:38:44.194Z,19.11
2023-05-31T18:41:12.514Z,19.56
2023-05-31T18:43:40.348Z,19.19
2023-05-31T18:46:08.157Z,18.64
2023-05-31T18:48:37.776Z,18.90
2023-05-31T18:51:06.853Z,18.85
2023-05-31T18:53:34.800Z,18.62
2023-05-31T18:56:02.920Z,18.33
2023-05-31T18:58:30.980Z,18.25
2023-05-31T19:00:59.028Z,18.24
2023-05-31T19:03:28.259Z,17.58
2023-05-31T19:05:56.432Z,17.18
2023-05-31T19:08:24.109Z,17.52
2023-05-31T19:10:52.260Z,17.35
2023-05-31T19:13:20.437Z,18.06
2023-05-31T19:15:51.072Z,18.28
2023-05-31T19:18:20.021Z,17.71
2023-05-31T19:20:49.574Z,18.11
2023-05-31T19:23:17.796Z,17.91
2023-05-31T19:25:46.075Z,16.98
2023-05-31T19:28:14.798Z,16.73
2023-05-31T19:30:43.725Z,16.68
2023-05-31T19:33:14.294Z,17.50
2023-05-31T19:35:42.144Z,17.50
2023-05-31T19:38:10.940Z,16.86
2023-05-31T19:40:39.126Z,16.49
2023-05-31T19:43:07.655Z,16.49
2023-05-31T19:45:36.198Z,16.92
2023-05-31T19:48:09.325Z,16.28
2023-05-31T19:50:37.916Z,15.90
2023-05-31T19:53:05.977Z,16.40
2023-05-31T19:55:33.929Z,16.16
2023-05-31T19:58:01.652Z,16.35
2023-05-31T20:00:29.765Z,16.56
2023-05-31T20:02:58.044Z,16.52
2023-05-31T20:05:25.904Z,16.11
2023-05-31T20:07:53.685Z,15.97
2023-05-31T20:10:21.939Z,16.00
2023-05-31T20:12:52.836Z,16.68
2023-05-31T20:15:21.318Z,16.17
2023-05-31T20:17:49.775Z,16.60
2023-05-31T20:20:17.552Z,15.71
2023-05-31T20:22:46.290Z,16.17
2023-05-31T20:25:14.352Z,16.15
2023-05-31T20:27:42.286Z,15.88
2023-05-31T20:30:12.098Z,15.66
2023-05-31T20:32:40.452Z,15.32
2023-05-31T20:35:08.558Z,15.44
2023-05-31T20:37:36.627Z,15.92
2023-05-31T20:40:04.487Z,16.15
2023-05-31T20:42:32.186Z,15.43
2023-05-31T20:45:00.409Z,15.54
2023-05-31T20:47:29.603Z,15.59
2023-05-31T20:49:57.448Z,16.01
2023-05-31T20:52:25.689Z,16.27
2023-05-31T20:54:53.488Z,15.92
2023-05-31T20:57:21.431Z,15.31
2023-05-31T20:59:51.195Z,15.23
2023-05-31T21:02:19.510Z,15.25
2023-05-31T21:04:47.861Z,15.46
2023-05-31T21:07:16.055Z,15.70
2023-05-31T21:09:44.444Z,15.83
2023-05-31T21:12:12.484Z,15.34
2023-05-31T21:14:40.652Z,15.52
2023-05-31T21:17:08.542Z,15.58
2023-05-31T21:22:21.982Z,14.82
2023-05-31T21:24:50.080Z,15.35
2023-05-31T21:27:17.801Z,15.09
2023-05-31T21:29:46.071Z,14.76
2023-05-31T21:32:21.144Z,14.89
2023-05-31T21:35:41.245Z,14.62
2023-05-31T21:38:12.711Z,14.84
2023-05-31T21:43:50.172Z,14.58
2023-05-31T21:46:42.580Z,14.54
2023-05-31T21:49:37.752Z,14.65
2023-05-31T21:52:17.123Z,15.22
2023-05-31T21:55:22.629Z,14.62
2023-05-31T21:58:26.776Z,14.66
2023-05-31T22:15:57.042Z,14.85
2023-05-31T22:20:04.975Z,14.42
2023-05-31T22:26:48.417Z,14.80
2023-05-31T22:58:49.559Z,14.04
2023-05-31T23:01:51.410Z,14.02
2023-05-31T23:05:11.278Z,14.06
2023-05-31T23:08:09.337Z,14.62
2023-05-31T23:18:53.273Z,13.82
2023-05-31T23:29:27.409Z,12.80
2023-05-31T23:32:47.353Z,13.78
2023-05-31T23:36:23.788Z,13.46
